NCAR-RAP Real-Time Weather Data

Output produced by METARs form (12 August 2020  17:32 UTC)
found at http://weather.rap.ucar.edu/surface/
 
KSYR 121654Z 31007KT 10SM FEW030 FEW150 SCT200 SCT250 28/14 A3009 RMK AO2 SLP184 T02780139
KSYR 121554Z 30007KT 10SM FEW030 FEW150 SCT200 BKN250 27/13 A3010 RMK AO2 SLP187 T02670133
KSYR 121454Z VRB05KT 10SM FEW030 FEW150 SCT200 BKN250 26/15 A3010 RMK AO2 SLP186 T02560150 51009
KSYR 121354Z 26007KT 10SM FEW150 SCT200 BKN250 24/16 A3010 RMK AO2 SLP187 T02440161
KSYR 121254Z 25006KT 10SM FEW150 SCT200 BKN250 23/17 A3009 RMK AO2 SLP183 T02330167
KSYR 121154Z 27004KT 10SM FEW160 SCT180 BKN250 23/17 A3007 RMK AO2 SLP178 70054 T02280167 10233 20200 53015
KSYR 121054Z 23004KT 10SM FEW028 SCT180 BKN250 21/17 A3005 RMK AO2 SLP171 T02060167
KSYR 120954Z 25004KT 10SM FEW030 FEW044 SCT250 21/17 A3004 RMK AO2 SLP167 T02060167
KSYR 120854Z 25005KT 10SM BKN034 BKN045 BKN050 22/18 A3003 RMK AO2 SLP162 T02170183 53015
KSYR 120754Z 28006KT 10SM BKN055 BKN090 22/18 A3001 RMK AO2 SLP156 T02220183
KSYR 120654Z 24006KT 10SM FEW020 BKN065 23/19 A3000 RMK AO2 SLP151 BKN V OVC T02330194
KSYR 120554Z 24005KT 10SM FEW034 SCT045 23/19 A2998 RMK AO2 SLP147 T02280194 10256 20222 51014
KSYR 120454Z 21003KT 10SM SCT033 23/21 A2997 RMK AO2 SLP142 T02330211 403390200
KSYR 120354Z 00000KT 10SM BKN037 BKN060 24/21 A2996 RMK AO2 SLP139 T02390211
KSYR 120254Z 14003KT 10SM FEW040 FEW060 SCT200 23/21 A2994 RMK AO2 SLP133 T02280206 51017
KSYR 120154Z 00000KT 10SM FEW040 SCT060 SCT200 23/21 A2993 RMK AO2 SLP130 T02280211
KSYR 120054Z 00000KT 10SM SCT040 BKN060 BKN200 24/22 A2991 RMK AO2 SLP121 T02390217
KSYR 112354Z VRB03KT 10SM FEW060 FEW100 SCT200 25/22 A2989 RMK AO2 SLP117 60054 T02500217 10339 20228 52022
KSYR 112254Z 10004KT 10SM FEW030 FEW060 SCT100 BKN200 26/22 A2987 RMK AO2 RAE27 TSE27 SLP110 TS MOVD NE OCNL LTGICCC DSNT NE CB DSNT NE P0000 T02560217
KSYR 112227Z 00000KT 10SM FEW030 SCT060 BKN100 BKN200 25/22 A2987 RMK AO2 LTG DSNT E RAE27 TSE27 TS MOVD NE OCNL LTGICCC DSNT NE CB DSNT NE P0000 T02500217
KSYR 112154Z 02010KT 7SM R28/2000VP6000FT -TSRA BKN015CB BKN050 BKN100 BKN200 23/21 A2985 RMK AO2 PK WND 24027/2138 LTG DSNT NE SLP103 RAB00 TSB05 OCNL LTGICCC OHD TS OHD MOV NE P0054 T02330211
KSYR 112144Z 19016G27KT 1SM R28/1600VP6000FT +TSRA BR BKN025CB OVC060 23/21 A2986 RMK AO2 PK WND 24027/2138 LTG DSNT NE AND E RAB00 TSE04B06 RAB00 TSB05 OCNL LTGICCC OHD TS OHD MOV NE P0014 T02280206
KSYR 112106Z 19015KT 6SM R28/5000VP6000FT TSRA BKN040CB BKN080 BKN200 27/21 A2984 RMK AO2 LTG DSNT S AND SW RAB00 TSE04B06 OCNL LTGICCC OHD TS OHD MOV NE P0000 T02720206
KSYR 112054Z 20012G24KT 10SM BKN050CB BKN100 BKN200 29/19 A2983 RMK AO2 LTG DSNT SW RAB23E35 SLP095 OCNL LTGICCC DSNT S CB S MOV NE P0000 60000 T02940194 55005
KSYR 111954Z 22013KT 10SM SCT060 BKN110 BKN200 33/18 A2982 RMK AO2 SLP093 T03280178
KSYR 111854Z 21010G20KT 10SM SCT060 BKN110 BKN200 32/17 A2983 RMK AO2 SLP095 T03170172
KSYR 111754Z 23013G22KT 10SM SCT065 SCT100 BKN120 BKN250 32/16 A2984 RMK AO2 PK WND 20026/1706 SLP099 T03220156 10339 20256 56013
KSYR 111654Z 23016G23KT 10SM FEW065 SCT150 SCT250 33/18 A2986 RMK AO2 SLP104 T03280178
KSYR 111554Z 19011G20KT 10SM FEW040 FEW200 SCT250 32/18 A2987 RMK AO2 SLP107 T03220183
KSYR 111454Z 18012KT 10SM FEW200 FEW250 31/19 A2988 RMK AO2 SLP112 T03110194 58008
KSYR 111354Z 19008KT 10SM FEW250 29/20 A2989 RMK AO2 SLP116 T02940200
KSYR 111254Z 20010KT 10SM FEW200 SCT250 28/19 A2991 RMK AO2 SLP120 T02780189
KSYR 111154Z 14004KT 10SM FEW150 FEW200 SCT250 26/19 A2991 RMK AO2 SLP121 T02560189 10256 20200 52008
KSYR 111054Z 00000KT 10SM FEW150 FEW200 SCT250 22/18 A2990 RMK AO2 SLP117 T02170178
KSYR 110954Z 09004KT 10SM FEW160 SCT250 21/18 A2989 RMK AO2 SLP115 T02060178
KSYR 110854Z 08003KT 10SM SCT250 22/18 A2988 RMK AO2 SLP112 T02170178 56009
KSYR 110754Z 00000KT 10SM BKN260 22/18 A2989 RMK AO2 SLP114 T02220178
KSYR 110654Z 08005KT 10SM FEW200 SCT260 22/18 A2990 RMK AO2 SLP118 T02170183
KSYR 110554Z 05003KT 10SM FEW200 FEW260 22/18 A2991 RMK AO2 SLP121 T02220183 10283 20222 58009
KSYR 110454Z 00000KT 10SM FEW260 23/18 A2992 RMK AO2 SLP126 T02330183 403280222
KSYR 110354Z 00000KT 10SM FEW250 24/19 A2993 RMK AO2 SLP127 T02390194
KSYR 110254Z 13005KT 10SM FEW180 FEW250 24/19 A2994 RMK AO2 SLP130 T02440194 50007
KSYR 110154Z 13004KT 10SM FEW180 SCT250 25/19 A2994 RMK AO2 SLP131 T02500194
KSYR 110054Z 09004KT 10SM FEW080 SCT180 BKN250 26/20 A2993 RMK AO2 SLP128 T02560200
KSYR 102354Z 10006KT 10SM FEW030 FEW080 BKN180 BKN250 28/22 A2991 RMK AO2 SLP123 60000 T02830222 10328 20283 56009
KSYR 102254Z 10006KT 10SM FEW030 SCT080 BKN250 29/22 A2992 RMK AO2 SLP124 T02940217
KSYR 102154Z 00000KT 10SM FEW030 SCT080 BKN250 31/21 A2993 RMK AO2 LTG DSNT SE AND S SLP129 CB DSNT S T03110211
KSYR 102054Z 34007KT 10SM SCT030 BKN060 BKN080 BKN250 31/22 A2994 RMK AO2 TSB19E52 SLP133 TS MOVD E OCNL LTGICCC DSNT NE CB DSNT NE 60000 T03110217 58014
KSYR 102019Z 31003KT 10SM TS BKN030CB BKN060 BKN080 32/21 A2995 RMK AO2 TSB19 OCNL LTGICCC OHD TS OHD MOV SE T03170211
KSYR 101954Z VRB04KT 10SM FEW040 SCT055TCU BKN070 32/21 A2996 RMK AO2 SLP138 TS MOVD SE TCU ALQDS T03220211
KSYR 101917Z 28007KT 230V300 10SM FEW040 SCT055TCU BKN070 32/22 A2997 RMK AO2 TS MOVD SE TCU ALQDS T03170217
KSYR 101902Z 32007KT 10SM VCTS FEW040CB SCT055TCU BKN070 32/22 A2997 RMK AO2 LTGICCC VC N-E TS VC N-E MOV SE TCU ALQDS T03170217
KSYR 101854Z 30008KT 10SM BKN040TCU BKN060 BKN250 32/22 A2998 RMK AO2 LTG DSNT NE RAB39E49 SLP144 TCU ALQDS CB DSNT NE MOV SE P0000 T03170222
KSYR 101754Z VRB03KT 10SM SCT060 SCT150 BKN250 32/21 A2999 RMK AO2 SLP148 60000 T03220211 10322 20250 57013